Whites Crossing, Mississippi
Current Conditions -  °F | °C
As of 9:53 PM on Thursday 18 Dec 2014 (Local Time) from KHBG Reporting Station
Overcast Overcast  
Wind Chill: 51°   Ceiling: 2400
Heat Index: 51°   Visibility: 10mi
Dew Point: 49°   Wind: 0mph
Humidity: 92%   Direction: NA
Pressure: 30.2"   Gusts: NA
Location:  30.8678°N, 89.1157°W
Report Text: KHBG 190353Z AUTO 00000KT 10SM FEW004 OVC024 11/09 A3020 RMK AO2 SLP224 T01060094
Loading
Personal Weather Stations






























Interactive Weather Map New forecast layout! Learn more

10-Day Weather Forecast

Advertisements
Track Severe Weather on mobile